Time;durP1;ratioP1;P1;durP2;ratioP2;P2;SDS_P1;SDS_P2;PMS_P1;PMS_P2;Temp;Humidity;BMP_temperature;BMP_pressure;BME280_temperature;BME280_humidity;BME280_pressure;Samples;Min_cycle;Max_cycle;Signal;HPM_P1;HPM_P2
2021/12/01 00:03:10;;;;;;;0.50;0.20;;;8.80;99.90;;;;;;6732471;88;20744;-74
2021/12/01 00:13:13;;;;;;;0.95;0.30;;;8.80;99.90;;;;;;6728274;88;20201;-74
2021/12/01 00:23:14;;;;;;;0.60;0.20;;;8.90;99.90;;;;;;6732767;88;20196;-74
2021/12/01 00:33:22;;;;;;;0.30;0.20;;;8.80;99.90;;;;;;6732425;88;20177;-74
2021/12/01 00:43:25;;;;;;;0.98;0.20;;;9.00;99.90;;;;;;6734696;88;20572;-77
2021/12/01 00:53:26;;;;;;;0.60;0.20;;;9.00;99.90;;;;;;6733929;88;20227;-74
2021/12/01 01:03:28;;;;;;;0.82;0.37;;;9.20;99.90;;;;;;6738401;88;20663;-74
2021/12/01 01:23:49;;;;;;;1.00;0.40;;;8.90;99.90;;;;;;6735973;88;20267;-74
2021/12/01 01:33:50;;;;;;;1.50;0.40;;;9.00;99.90;;;;;;6736604;88;20238;-74
2021/12/01 01:44:32;;;;;;;1.98;0.40;;;9.00;99.90;;;;;;6712412;77;20179;-77
2021/12/01 01:54:33;;;;;;;0.80;0.40;;;9.10;99.90;;;;;;6669054;88;20179;-77
2021/12/01 02:04:34;;;;;;;1.42;0.40;;;9.00;99.90;;;;;;6665822;89;20249;-77
2021/12/01 02:14:34;;;;;;;1.25;0.32;;;9.00;99.90;;;;;;6683105;88;20252;-78
2021/12/01 02:24:35;;;;;;;1.17;0.60;;;8.90;99.90;;;;;;6683325;88;20222;-77
2021/12/01 02:34:38;;;;;;;1.40;0.70;;;9.00;99.90;;;;;;6682998;88;20186;-78
2021/12/01 02:44:39;;;;;;;1.10;0.60;;;9.00;99.90;;;;;;6692056;88;20209;-77
2021/12/01 02:54:39;;;;;;;3.70;0.93;;;8.90;99.90;;;;;;6700100;88;20601;-78
2021/12/01 03:04:40;;;;;;;1.55;0.88;;;8.90;99.90;;;;;;6699630;88;20252;-78
2021/12/01 03:14:41;;;;;;;1.75;0.90;;;8.90;99.90;;;;;;6699828;88;20301;-78
2021/12/01 03:24:42;;;;;;;2.10;0.85;;;8.80;99.90;;;;;;6699595;88;20318;-78
2021/12/01 03:34:44;;;;;;;1.50;0.70;;;8.80;99.90;;;;;;6699962;88;20213;-78
2021/12/01 03:44:44;;;;;;;1.90;1.00;;;8.70;99.90;;;;;;6700273;88;20196;-78
2021/12/01 03:54:47;;;;;;;2.37;1.42;;;8.70;99.90;;;;;;6700203;88;20731;-77
2021/12/01 04:04:47;;;;;;;2.45;1.40;;;8.70;99.90;;;;;;6703515;88;20376;-76
2021/12/01 04:14:48;;;;;;;3.03;1.52;;;8.60;99.90;;;;;;6706964;88;20262;-79
2021/12/01 04:24:49;;;;;;;3.93;2.10;;;8.60;99.90;;;;;;6697584;88;20378;-76
2021/12/01 04:34:49;;;;;;;4.00;2.25;;;8.50;99.90;;;;;;6702609;88;20545;-78
2021/12/01 04:44:51;;;;;;;4.33;2.27;;;8.50;99.90;;;;;;6699602;88;20202;-78
2021/12/01 04:54:51;;;;;;;3.70;1.98;;;8.50;99.90;;;;;;6699938;88;20586;-79
2021/12/01 05:04:52;;;;;;;3.10;1.80;;;8.60;99.90;;;;;;6699793;88;20209;-78
2021/12/01 05:14:53;;;;;;;3.83;1.50;;;8.50;99.90;;;;;;6699597;88;20638;-78
2021/12/01 05:24:54;;;;;;;3.03;1.62;;;8.50;99.90;;;;;;6701149;88;20267;-78
2021/12/01 05:34:54;;;;;;;2.70;1.30;;;8.40;99.90;;;;;;6702977;88;20232;-78
2021/12/01 05:44:55;;;;;;;2.60;1.20;;;8.40;99.90;;;;;;6685844;88;20258;-78
2021/12/01 05:54:56;;;;;;;1.48;0.88;;;8.40;99.90;;;;;;6684905;88;20328;-78
2021/12/01 06:04:56;;;;;;;1.65;0.80;;;8.40;99.90;;;;;;6684378;88;20694;-78
2021/12/01 06:14:58;;;;;;;1.40;0.70;;;8.40;99.90;;;;;;6684361;88;20182;-77
2021/12/01 06:24:58;;;;;;;1.20;0.70;;;8.40;99.90;;;;;;6683376;88;20654;-77
2021/12/01 06:34:59;;;;;;;2.47;0.60;;;8.50;99.90;;;;;;6684741;88;20264;-78
2021/12/01 06:45:00;;;;;;;1.65;0.70;;;8.50;99.90;;;;;;6680079;88;20395;-77
2021/12/01 06:55:02;;;;;;;1.10;0.50;;;8.50;99.90;;;;;;6696249;88;20373;-78
2021/12/01 07:05:03;;;;;;;1.58;0.73;;;8.60;99.90;;;;;;6701100;88;20194;-77
2021/12/01 07:15:06;;;;;;;0.88;0.40;;;8.70;99.90;;;;;;6688965;88;20239;-76
2021/12/01 07:25:07;;;;;;;1.00;0.40;;;8.80;99.90;;;;;;6686520;88;20630;-77
2021/12/01 07:35:08;;;;;;;1.20;0.30;;;8.90;99.90;;;;;;6689308;88;20254;-78
2021/12/01 07:45:09;;;;;;;0.60;0.30;;;8.90;99.90;;;;;;6704970;88;20194;-78
2021/12/01 07:55:09;;;;;;;0.82;0.20;;;8.90;99.90;;;;;;6704090;88;20397;-77
2021/12/01 08:05:10;;;;;;;0.70;0.30;;;8.90;99.90;;;;;;6696879;88;20247;-78
2021/12/01 08:15:10;;;;;;;1.52;0.30;;;9.00;99.90;;;;;;6701921;88;20237;-78
2021/12/01 08:25:11;;;;;;;0.98;0.40;;;8.90;99.90;;;;;;6683675;88;20616;-78
2021/12/01 08:35:13;;;;;;;0.53;0.20;;;8.90;99.90;;;;;;6687654;88;20247;-78
2021/12/01 08:45:14;;;;;;;0.62;0.10;;;8.90;99.90;;;;;;6686140;88;20571;-79
2021/12/01 08:55:15;;;;;;;0.50;0.20;;;9.10;99.90;;;;;;6685693;88;20605;-78
2021/12/01 09:05:15;;;;;;;0.50;0.20;;;9.20;99.90;;;;;;6684024;88;20221;-78
2021/12/01 09:15:16;;;;;;;0.73;0.20;;;9.20;99.90;;;;;;6687357;88;20294;-78
2021/12/01 09:25:17;;;;;;;0.30;0.10;;;9.50;99.90;;;;;;6697717;88;20242;-78
2021/12/01 09:35:18;;;;;;;0.22;0.10;;;9.60;99.90;;;;;;6697871;88;20217;-78
2021/12/01 09:45:21;;;;;;;0.28;0.10;;;9.80;99.90;;;;;;6690020;88;20260;-78
2021/12/01 09:55:21;;;;;;;0.43;0.20;;;10.00;99.90;;;;;;6683321;88;20219;-78
2021/12/01 10:05:59;;;;;;;0.55;0.10;;;10.10;99.90;;;;;;6696255;88;20353;-77
2021/12/01 10:16:02;;;;;;;0.95;0.20;;;10.30;99.90;;;;;;6688260;88;20218;-78
2021/12/01 10:26:33;;;;;;;0.70;0.25;;;10.40;99.90;;;;;;6697750;88;20194;-78
2021/12/01 10:36:34;;;;;;;0.10;0.10;;;10.50;99.90;;;;;;6689507;88;20199;-78
2021/12/01 10:46:50;;;;;;;0.60;0.20;;;10.60;99.90;;;;;;6682394;88;20774;-77
2021/12/01 10:57:17;;;;;;;2.62;0.10;;;10.50;99.90;;;;;;6672099;88;20240;-77
2021/12/01 11:07:27;;;;;;;0.35;0.17;;;10.60;99.90;;;;;;6674212;88;20198;-78
2021/12/01 11:17:44;;;;;;;0.30;0.10;;;10.70;99.90;;;;;;6664081;89;20235;-77
2021/12/01 11:27:45;;;;;;;0.40;0.20;;;11.30;99.90;;;;;;6669349;89;20231;-78
2021/12/01 11:37:54;;;;;;;0.25;0.10;;;11.10;99.90;;;;;;6665692;89;20696;-76
2021/12/01 11:47:55;;;;;;;0.17;0.10;;;11.20;99.90;;;;;;6664113;89;21069;-77
2021/12/01 11:57:56;;;;;;;0.43;0.15;;;11.00;99.90;;;;;;6670230;88;20662;-77
2021/12/01 12:07:57;;;;;;;0.62;0.30;;;10.50;99.90;;;;;;6667288;89;20278;-77
2021/12/01 12:17:57;;;;;;;0.52;0.30;;;9.90;99.90;;;;;;6667470;89;20186;-76
2021/12/01 12:27:58;;;;;;;0.47;0.10;;;9.70;99.90;;;;;;6665546;89;20229;-76
2021/12/01 12:38:08;;;;;;;0.50;0.10;;;9.40;99.90;;;;;;6687313;88;20194;-76
2021/12/01 12:48:28;;;;;;;0.40;0.20;;;9.40;99.90;;;;;;6693248;88;20183;-77
2021/12/01 12:58:36;;;;;;;0.82;0.20;;;9.20;99.90;;;;;;6683238;88;20310;-77
2021/12/01 13:08:43;;;;;;;3.30;0.80;;;9.00;99.90;;;;;;6685203;88;20682;-77
2021/12/01 13:18:45;;;;;;;;;;;8.80;99.90;;;;;;6683585;88;20269;-76
2021/12/01 13:28:50;;;;;;;7.95;1.70;;;8.70;99.90;;;;;;6687168;88;20154;-76
2021/12/01 13:39:06;;;;;;;3.72;1.52;;;8.70;99.90;;;;;;6678960;88;20182;-77
2021/12/01 13:49:07;;;;;;;2.47;1.30;;;8.60;99.90;;;;;;6684074;88;20627;-77
2021/12/01 13:59:07;;;;;;;3.83;1.90;;;8.70;99.90;;;;;;6682721;88;20216;-77
2021/12/01 14:09:20;;;;;;;3.60;1.80;;;8.70;99.90;;;;;;6696243;88;20213;-76
2021/12/01 14:19:25;;;;;;;4.05;1.23;;;8.60;99.90;;;;;;6696658;88;20223;-77
2021/12/01 14:29:33;;;;;;;5.53;1.60;;;8.60;99.90;;;;;;6693876;88;20215;-76
2021/12/01 14:39:34;;;;;;;5.07;1.20;;;8.60;99.90;;;;;;6685714;88;20217;-76
2021/12/01 14:49:39;;;;;;;6.18;1.10;;;8.40;99.90;;;;;;6681702;88;20231;-77
2021/12/01 14:59:52;;;;;;;5.10;0.95;;;8.40;99.90;;;;;;6683781;88;20682;-76
2021/12/01 15:09:53;;;;;;;5.57;1.15;;;8.40;99.90;;;;;;6677211;88;20693;-76
2021/12/01 15:20:08;;;;;;;4.40;1.20;;;8.40;99.90;;;;;;6684214;88;20200;-78
2021/12/01 15:30:09;;;;;;;6.12;1.45;;;8.30;99.90;;;;;;6685245;88;20333;-77
2021/12/01 15:40:11;;;;;;;3.78;1.10;;;8.20;99.90;;;;;;6679068;88;20182;-77
2021/12/01 15:50:12;;;;;;;3.67;1.00;;;8.20;99.90;;;;;;6678253;88;20308;-77
2021/12/01 16:00:15;;;;;;;4.03;0.80;;;8.00;99.90;;;;;;6683103;88;20204;-76
2021/12/01 16:10:16;;;;;;;3.37;0.90;;;8.10;99.90;;;;;;6683130;88;20320;-76
2021/12/01 16:20:18;;;;;;;2.47;0.65;;;8.00;99.90;;;;;;6683031;88;20203;-77
2021/12/01 16:30:25;;;;;;;3.42;0.80;;;8.00;99.90;;;;;;6682884;89;20215;-76
2021/12/01 16:40:31;;;;;;;2.70;1.02;;;8.10;99.90;;;;;;6683403;89;20186;-77
2021/12/01 16:50:32;;;;;;;4.00;0.98;;;8.10;99.90;;;;;;6666075;89;20261;-76
2021/12/01 17:00:37;;;;;;;2.15;0.60;;;8.20;99.90;;;;;;6685823;88;20343;-78
2021/12/01 17:10:37;;;;;;;1.90;0.70;;;8.20;99.90;;;;;;6683990;88;20683;-76
2021/12/01 17:20:38;;;;;;;3.35;0.90;;;8.20;99.90;;;;;;6690227;88;20202;-76
2021/12/01 17:31:24;;;;;;;2.05;0.90;;;8.10;99.90;;;;;;6688783;88;20258;-76
2021/12/01 17:41:04;;;;;;;5.30;1.30;;;8.10;99.90;;;;;;6682153;88;20598;-77
2021/12/01 17:51:06;;;;;;;4.12;1.10;;;8.00;99.90;;;;;;6694727;88;20222;-77
2021/12/01 18:01:09;;;;;;;5.45;1.40;;;7.90;99.90;;;;;;6695877;88;20186;-77
2021/12/01 18:11:10;;;;;;;5.80;1.37;;;7.80;99.90;;;;;;6693018;88;20204;-77
2021/12/01 18:21:12;;;;;;;4.10;1.20;;;7.70;99.90;;;;;;6688729;88;20241;-76
2021/12/01 18:31:13;;;;;;;4.75;1.33;;;7.70;99.90;;;;;;6678374;88;20359;-77
2021/12/01 18:41:15;;;;;;;4.10;1.62;;;7.70;99.90;;;;;;6683694;88;20347;-79
2021/12/01 18:51:17;;;;;;;6.80;1.83;;;7.70;99.90;;;;;;6686788;88;20240;-76
2021/12/01 19:01:19;;;;;;;6.53;2.08;;;7.60;99.90;;;;;;6692223;88;20232;-77
2021/12/01 19:11:20;;;;;;;6.93;1.80;;;7.70;99.90;;;;;;6684838;88;20180;-76
2021/12/01 19:21:21;;;;;;;5.00;1.33;;;7.60;99.90;;;;;;6693290;88;20658;-76
2021/12/01 19:31:23;;;;;;;4.47;1.23;;;6.20;99.90;;;;;;6681127;88;20366;-75
2021/12/01 19:41:25;;;;;;;2.37;0.85;;;6.00;99.90;;;;;;6683504;88;20198;-75
2021/12/01 19:51:25;;;;;;;3.80;0.90;;;5.90;99.90;;;;;;6688250;88;20245;-76
2021/12/01 20:01:26;;;;;;;6.32;1.70;;;5.90;99.90;;;;;;6682700;88;20712;-75
2021/12/01 20:11:27;;;;;;;6.40;2.05;;;6.00;99.90;;;;;;6681276;88;20282;-76
2021/12/01 20:21:28;;;;;;;6.20;1.67;;;6.00;99.90;;;;;;6683591;88;20199;-74
2021/12/01 20:31:29;;;;;;;7.05;1.60;;;6.10;99.90;;;;;;6685903;88;20193;-75
2021/12/01 20:41:32;;;;;;;5.32;1.50;;;6.20;99.90;;;;;;6670663;89;20687;-75
2021/12/01 21:01:54;;;;;;;5.97;1.30;;;5.90;99.90;;;;;;6676649;88;20203;-75
2021/12/01 21:11:59;;;;;;;5.37;1.50;;;5.80;99.90;;;;;;6672382;88;20244;-75
2021/12/01 21:22:03;;;;;;;4.80;1.10;;;5.90;99.90;;;;;;6708401;77;20230;-78
2021/12/01 21:32:09;;;;;;;4.55;1.25;;;5.90;99.90;;;;;;6710150;88;20222;-77
2021/12/01 21:42:10;;;;;;;4.10;1.10;;;6.00;99.90;;;;;;6709635;88;20329;-78
2021/12/01 21:52:17;;;;;;;3.83;1.17;;;6.10;99.90;;;;;;6714330;88;20240;-78
2021/12/01 22:02:18;;;;;;;6.03;1.20;;;6.00;99.90;;;;;;6711446;88;20208;-77
2021/12/01 22:12:21;;;;;;;6.15;1.27;;;6.10;99.90;;;;;;6714034;88;20313;-77
2021/12/01 22:22:32;;;;;;;3.90;1.10;;;5.90;99.90;;;;;;6708735;88;20178;-77
2021/12/01 22:32:39;;;;;;;2.22;0.90;;;6.00;99.90;;;;;;6710597;88;20311;-77
2021/12/01 22:42:42;;;;;;;3.45;1.00;;;6.00;99.90;;;;;;6707856;88;20191;-77
2021/12/01 22:52:43;;;;;;;5.15;0.95;;;5.90;99.90;;;;;;6713385;88;20186;-78
2021/12/01 23:02:48;;;;;;;4.03;1.10;;;5.90;99.90;;;;;;6707347;88;20231;-77
2021/12/01 23:12:52;;;;;;;5.12;1.20;;;5.80;99.90;;;;;;6704187;88;20216;-78
2021/12/01 23:33:12;;;;;;;5.18;0.95;;;5.70;99.90;;;;;;6713995;88;20203;-80
2021/12/01 23:43:14;;;;;;;4.32;1.00;;;5.80;99.90;;;;;;6711093;88;20562;-78
2021/12/01 23:53:14;;;;;;;2.62;0.70;;;5.70;99.90;;;;;;6708302;88;20807;-78
